sensor_id;sensor_type;location;lat;lon;timestamp;pressure;altitude;pressure_sealevel;temperature;humidity
3697;BME280;60662;48.810;8.872;2024-03-25T06:19:21;95821.41;;;3.40;91.96
3697;BME280;60662;48.810;8.872;2024-03-25T06:20:21;95812.47;;;3.50;91.69
3697;BME280;60662;48.810;8.872;2024-03-25T06:25:15;95827.31;;;3.73;90.17
3697;BME280;60662;48.810;8.872;2024-03-25T06:29:06;95828.47;;;3.91;88.89
3697;BME280;60662;48.810;8.872;2024-03-25T06:32:45;95830.34;;;4.40;87.42
3697;BME280;60662;48.810;8.872;2024-03-25T06:36:34;95839.81;;;4.66;86.56
3697;BME280;60662;48.810;8.872;2024-03-25T06:39:48;95840.28;;;5.03;84.04
3697;BME280;60662;48.810;8.872;2024-03-25T06:42:55;95836.69;;;5.07;83.39
3697;BME280;60662;48.810;8.872;2024-03-25T06:45:51;95849.69;;;5.53;81.67
3697;BME280;60662;48.810;8.872;2024-03-25T06:48:45;95843.16;;;5.66;81.31
3697;BME280;60662;48.810;8.872;2024-03-25T06:51:52;95850.06;;;6.12;79.81
3697;BME280;60662;48.810;8.872;2024-03-25T06:52:53;95857.31;;;6.03;79.42
3697;BME280;60662;48.810;8.872;2024-03-25T06:53:54;95855.50;;;6.28;78.76
3697;BME280;60662;48.810;8.872;2024-03-25T06:56:27;95859.78;;;6.29;77.87
3697;BME280;60662;48.810;8.872;2024-03-25T06:57:28;95858.69;;;6.34;78.19
3697;BME280;60662;48.810;8.872;2024-03-25T06:58:29;95849.38;;;6.51;77.71
3697;BME280;60662;48.810;8.872;2024-03-25T06:59:29;95859.56;;;6.33;77.27
3697;BME280;60662;48.810;8.872;2024-03-25T07:00:36;95854.03;;;6.43;77.48
3697;BME280;60662;48.810;8.872;2024-03-25T07:01:37;95848.16;;;6.60;76.87
3697;BME280;60662;48.810;8.872;2024-03-25T07:02:37;95853.81;;;6.69;75.81
3697;BME280;60662;48.810;8.872;2024-03-25T07:03:38;95859.81;;;6.91;75.42
3697;BME280;60662;48.810;8.872;2024-03-25T07:04:39;95853.91;;;7.08;74.85
3697;BME280;60662;48.810;8.872;2024-03-25T07:05:40;95855.59;;;6.88;74.82
3697;BME280;60662;48.810;8.872;2024-03-25T07:06:40;95864.16;;;7.11;75.30
3697;BME280;60662;48.810;8.872;2024-03-25T07:07:41;95859.88;;;7.30;74.17
3697;BME280;60662;48.810;8.872;2024-03-25T07:08:42;95859.19;;;7.46;73.53
3697;BME280;60662;48.810;8.872;2024-03-25T07:09:42;95858.16;;;7.29;73.25
3697;BME280;60662;48.810;8.872;2024-03-25T07:10:44;95853.97;;;7.46;73.06
3697;BME280;60662;48.810;8.872;2024-03-25T07:11:44;95852.72;;;7.74;73.14
3697;BME280;60662;48.810;8.872;2024-03-25T07:12:47;95854.00;;;7.65;72.48
3697;BME280;60662;48.810;8.872;2024-03-25T07:13:47;95853.44;;;7.58;72.92
3697;BME280;60662;48.810;8.872;2024-03-25T07:14:48;95846.66;;;7.54;73.14
3697;BME280;60662;48.810;8.872;2024-03-25T07:15:49;95843.31;;;7.52;72.38
3697;BME280;60662;48.810;8.872;2024-03-25T07:16:49;95835.16;;;7.60;72.05
3697;BME280;60662;48.810;8.872;2024-03-25T07:17:50;95838.53;;;7.81;71.65
3697;BME280;60662;48.810;8.872;2024-03-25T07:18:50;95830.88;;;7.78;70.71
3697;BME280;60662;48.810;8.872;2024-03-25T07:19:51;95830.66;;;7.82;70.97
3697;BME280;60662;48.810;8.872;2024-03-25T07:20:52;95828.78;;;8.04;70.98
3697;BME280;60662;48.810;8.872;2024-03-25T07:21:53;95821.31;;;8.15;71.04
3697;BME280;60662;48.810;8.872;2024-03-25T07:22:53;95833.78;;;8.45;69.62
3697;BME280;60662;48.810;8.872;2024-03-25T07:23:56;95830.91;;;8.69;69.15
3697;BME280;60662;48.810;8.872;2024-03-25T07:24:57;95835.94;;;8.72;68.33
3697;BME280;60662;48.810;8.872;2024-03-25T07:25:57;95830.56;;;9.10;67.37
3697;BME280;60662;48.810;8.872;2024-03-25T07:26:58;95836.38;;;9.15;66.36
3697;BME280;60662;48.810;8.872;2024-03-25T07:27:59;95833.94;;;9.12;66.43
3697;BME280;60662;48.810;8.872;2024-03-25T07:28:59;95832.41;;;9.41;65.53
3697;BME280;60662;48.810;8.872;2024-03-25T07:30:00;95831.63;;;9.39;65.49
3697;BME280;60662;48.810;8.872;2024-03-25T07:31:00;95828.84;;;9.26;64.46
3697;BME280;60662;48.810;8.872;2024-03-25T07:32:01;95828.13;;;8.89;65.15
3697;BME280;60662;48.810;8.872;2024-03-25T07:33:01;95829.53;;;8.61;65.00
3697;BME280;60662;48.810;8.872;2024-03-25T07:34:02;95825.63;;;8.53;66.32
3697;BME280;60662;48.810;8.872;2024-03-25T07:35:02;95824.00;;;8.50;67.27
3697;BME280;60662;48.810;8.872;2024-03-25T07:36:05;95822.16;;;8.87;66.76
3697;BME280;60662;48.810;8.872;2024-03-25T07:37:05;95824.91;;;9.35;65.09
3697;BME280;60662;48.810;8.872;2024-03-25T07:38:06;95828.75;;;9.61;64.80
3697;BME280;60662;48.810;8.872;2024-03-25T07:39:06;95828.19;;;9.39;64.24
3697;BME280;60662;48.810;8.872;2024-03-25T07:40:08;95821.75;;;9.46;63.92
3697;BME280;60662;48.810;8.872;2024-03-25T07:41:15;95820.56;;;9.52;63.47
3697;BME280;60662;48.810;8.872;2024-03-25T07:42:15;95825.94;;;9.64;63.81
3697;BME280;60662;48.810;8.872;2024-03-25T07:43:16;95811.38;;;9.44;63.08
3697;BME280;60662;48.810;8.872;2024-03-25T07:44:16;95819.56;;;9.86;62.17
3697;BME280;60662;48.810;8.872;2024-03-25T07:45:17;95816.13;;;9.70;59.97
3697;BME280;60662;48.810;8.872;2024-03-25T07:46:18;95813.97;;;9.44;60.77
3697;BME280;60662;48.810;8.872;2024-03-25T07:47:19;95815.13;;;9.88;60.47
3697;BME280;60662;48.810;8.872;2024-03-25T07:48:19;95811.75;;;9.86;60.09
3697;BME280;60662;48.810;8.872;2024-03-25T07:49:20;95810.09;;;10.48;59.73
3697;BME280;60662;48.810;8.872;2024-03-25T07:50:20;95808.34;;;10.62;58.84
3697;BME280;60662;48.810;8.872;2024-03-25T07:51:21;95821.38;;;10.48;59.17
3697;BME280;60662;48.810;8.872;2024-03-25T07:52:22;95817.00;;;10.33;59.04
3697;BME280;60662;48.810;8.872;2024-03-25T07:53:23;95818.44;;;10.69;59.00
3697;BME280;60662;48.810;8.872;2024-03-25T07:54:23;95816.94;;;10.65;58.19
3697;BME280;60662;48.810;8.872;2024-03-25T07:55:24;95821.75;;;10.87;58.77
3697;BME280;60662;48.810;8.872;2024-03-25T07:56:24;95821.59;;;10.90;57.25
3697;BME280;60662;48.810;8.872;2024-03-25T07:57:25;95821.78;;;10.56;57.58
3697;BME280;60662;48.810;8.872;2024-03-25T07:58:25;95815.25;;;10.94;57.02
3697;BME280;60662;48.810;8.872;2024-03-25T07:59:26;95814.50;;;10.92;57.40
3697;BME280;60662;48.810;8.872;2024-03-25T08:00:26;95822.91;;;10.20;58.37
3697;BME280;60662;48.810;8.872;2024-03-25T08:01:27;95824.13;;;9.33;59.18
3697;BME280;60662;48.810;8.872;2024-03-25T08:02:28;95836.16;;;9.36;60.20
3697;BME280;60662;48.810;8.872;2024-03-25T08:03:28;95823.69;;;9.74;59.81
3697;BME280;60662;48.810;8.872;2024-03-25T08:04:29;95837.66;;;10.21;58.92
3697;BME280;60662;48.810;8.872;2024-03-25T08:05:30;95829.41;;;10.45;57.73
3697;BME280;60662;48.810;8.872;2024-03-25T08:06:30;95833.97;;;10.86;57.87
3697;BME280;60662;48.810;8.872;2024-03-25T08:07:31;95830.34;;;11.03;56.57
3697;BME280;60662;48.810;8.872;2024-03-25T08:08:32;95831.94;;;10.61;57.21
3697;BME280;60662;48.810;8.872;2024-03-25T08:09:33;95827.41;;;10.65;56.68
3697;BME280;60662;48.810;8.872;2024-03-25T08:10:33;95821.94;;;10.98;56.73
3697;BME280;60662;48.810;8.872;2024-03-25T08:11:34;95821.50;;;10.61;56.77
3697;BME280;60662;48.810;8.872;2024-03-25T08:12:34;95823.94;;;10.94;57.19
3697;BME280;60662;48.810;8.872;2024-03-25T08:13:35;95821.88;;;11.28;56.59
3697;BME280;60662;48.810;8.872;2024-03-25T08:14:35;95815.16;;;11.82;55.15
3697;BME280;60662;48.810;8.872;2024-03-25T08:15:36;95811.69;;;12.23;53.90
3697;BME280;60662;48.810;8.872;2024-03-25T08:16:37;95814.22;;;11.69;54.33
3697;BME280;60662;48.810;8.872;2024-03-25T08:17:38;95812.94;;;11.33;53.88
3697;BME280;60662;48.810;8.872;2024-03-25T08:18:39;95812.09;;;11.18;55.11
3697;BME280;60662;48.810;8.872;2024-03-25T08:19:40;95808.69;;;10.87;56.25
3697;BME280;60662;48.810;8.872;2024-03-25T08:20:41;95790.44;;;11.16;55.69
3697;BME280;60662;48.810;8.872;2024-03-25T08:21:42;95791.38;;;11.58;54.90
3697;BME280;60662;48.810;8.872;2024-03-25T08:22:42;95798.63;;;11.53;54.31
3697;BME280;60662;48.810;8.872;2024-03-25T08:23:44;95795.13;;;11.96;53.38
3697;BME280;60662;48.810;8.872;2024-03-25T08:24:45;95806.41;;;12.11;53.83
3697;BME280;60662;48.810;8.872;2024-03-25T08:25:46;95801.25;;;11.95;53.27
3697;BME280;60662;48.810;8.872;2024-03-25T08:26:46;95800.22;;;12.39;53.14
3697;BME280;60662;48.810;8.872;2024-03-25T08:27:48;95798.88;;;12.46;52.61
3697;BME280;60662;48.810;8.872;2024-03-25T08:28:49;95801.22;;;12.64;52.59
3697;BME280;60662;48.810;8.872;2024-03-25T08:29:49;95797.47;;;12.68;52.83
3697;BME280;60662;48.810;8.872;2024-03-25T08:30:53;95786.81;;;12.31;52.59
3697;BME280;60662;48.810;8.872;2024-03-25T08:31:54;95797.78;;;12.23;53.33
3697;BME280;60662;48.810;8.872;2024-03-25T08:32:54;95797.66;;;11.83;55.47
3697;BME280;60662;48.810;8.872;2024-03-25T08:33:55;95786.28;;;11.69;55.27
3697;BME280;60662;48.810;8.872;2024-03-25T08:34:55;95799.06;;;11.74;55.23
3697;BME280;60662;48.810;8.872;2024-03-25T08:35:56;95794.69;;;12.16;54.21
3697;BME280;60662;48.810;8.872;2024-03-25T08:36:57;95799.88;;;12.71;53.92
3697;BME280;60662;48.810;8.872;2024-03-25T08:37:57;95790.16;;;13.12;53.13
3697;BME280;60662;48.810;8.872;2024-03-25T08:38:58;95796.34;;;13.99;52.37
3697;BME280;60662;48.810;8.872;2024-03-25T08:39:58;95792.44;;;14.29;50.40
3697;BME280;60662;48.810;8.872;2024-03-25T08:40:59;95785.16;;;14.33;49.26
3697;BME280;60662;48.810;8.872;2024-03-25T08:41:59;95799.06;;;13.22;50.06
3697;BME280;60662;48.810;8.872;2024-03-25T08:43:00;95793.03;;;12.55;51.58
3697;BME280;60662;48.810;8.872;2024-03-25T08:44:00;95797.22;;;11.62;52.23
3697;BME280;60662;48.810;8.872;2024-03-25T08:45:01;95796.41;;;11.61;53.29
3697;BME280;60662;48.810;8.872;2024-03-25T08:46:01;95799.50;;;11.39;51.99
3697;BME280;60662;48.810;8.872;2024-03-25T08:47:04;95791.38;;;11.00;53.16
3697;BME280;60662;48.810;8.872;2024-03-25T08:48:04;95801.06;;;10.53;54.59
3697;BME280;60662;48.810;8.872;2024-03-25T08:49:05;95797.22;;;10.44;54.80
3697;BME280;60662;48.810;8.872;2024-03-25T08:50:06;95800.59;;;10.30;55.25
3697;BME280;60662;48.810;8.872;2024-03-25T08:51:07;95793.63;;;10.15;54.43
3697;BME280;60662;48.810;8.872;2024-03-25T08:52:07;95790.06;;;10.32;55.39
3697;BME280;60662;48.810;8.872;2024-03-25T08:53:09;95798.66;;;10.18;55.24
3697;BME280;60662;48.810;8.872;2024-03-25T08:54:09;95794.00;;;9.77;56.27
3697;BME280;60662;48.810;8.872;2024-03-25T08:55:10;95793.41;;;9.40;56.20
3697;BME280;60662;48.810;8.872;2024-03-25T08:56:11;95795.00;;;9.09;56.78
3697;BME280;60662;48.810;8.872;2024-03-25T08:57:12;95791.06;;;8.14;58.99
3697;BME280;60662;48.810;8.872;2024-03-25T08:58:13;95791.38;;;8.25;59.05
3697;BME280;60662;48.810;8.872;2024-03-25T08:59:14;95789.00;;;8.38;58.83
3697;BME280;60662;48.810;8.872;2024-03-25T09:00:15;95786.88;;;8.46;58.49
3697;BME280;60662;48.810;8.872;2024-03-25T09:01:15;95783.41;;;8.28;59.20
3697;BME280;60662;48.810;8.872;2024-03-25T09:02:16;95779.19;;;8.08;58.38
3697;BME280;60662;48.810;8.872;2024-03-25T09:03:17;95781.56;;;8.13;59.29
3697;BME280;60662;48.810;8.872;2024-03-25T09:04:18;95787.50;;;7.97;57.90
3697;BME280;60662;48.810;8.872;2024-03-25T09:05:20;95783.50;;;7.90;57.59
3697;BME280;60662;48.810;8.872;2024-03-25T09:06:21;95782.94;;;8.03;56.41
3697;BME280;60662;48.810;8.872;2024-03-25T09:07:24;95782.47;;;7.75;56.87
3697;BME280;60662;48.810;8.872;2024-03-25T09:08:25;95774.53;;;7.97;58.40
3697;BME280;60662;48.810;8.872;2024-03-25T09:09:27;95756.44;;;7.94;57.79
3697;BME280;60662;48.810;8.872;2024-03-25T09:10:46;95778.16;;;7.93;58.01
3697;BME280;60662;48.810;8.872;2024-03-25T09:12:07;95775.38;;;8.15;59.04
3697;BME280;60662;48.810;8.872;2024-03-25T09:13:08;95770.81;;;8.38;60.02
3697;BME280;60662;48.810;8.872;2024-03-25T09:14:09;95766.91;;;8.64;59.77
3697;BME280;60662;48.810;8.872;2024-03-25T09:15:09;95779.47;;;8.56;57.66
3697;BME280;60662;48.810;8.872;2024-03-25T09:16:10;95782.94;;;8.38;58.40
3697;BME280;60662;48.810;8.872;2024-03-25T09:17:11;95780.78;;;8.47;56.27
3697;BME280;60662;48.810;8.872;2024-03-25T09:18:12;95784.28;;;8.81;55.06
3697;BME280;60662;48.810;8.872;2024-03-25T09:19:13;95778.31;;;8.44;55.93
3697;BME280;60662;48.810;8.872;2024-03-25T09:20:13;95782.00;;;8.58;54.78
3697;BME280;60662;48.810;8.872;2024-03-25T09:21:17;95777.63;;;9.09;54.94
3697;BME280;60662;48.810;8.872;2024-03-25T09:22:18;95780.88;;;9.78;53.68
3697;BME280;60662;48.810;8.872;2024-03-25T09:23:18;95772.47;;;9.73;53.57
3697;BME280;60662;48.810;8.872;2024-03-25T09:24:19;95770.78;;;9.88;53.30
3697;BME280;60662;48.810;8.872;2024-03-25T09:25:19;95769.25;;;9.52;53.77
3697;BME280;60662;48.810;8.872;2024-03-25T09:26:20;95770.03;;;9.70;56.01
3697;BME280;60662;48.810;8.872;2024-03-25T09:27:20;95760.88;;;10.56;53.18
3697;BME280;60662;48.810;8.872;2024-03-25T09:28:21;95760.25;;;9.90;52.69
3697;BME280;60662;48.810;8.872;2024-03-25T09:29:21;95761.25;;;10.50;54.48
3697;BME280;60662;48.810;8.872;2024-03-25T09:30:22;95759.09;;;10.42;52.34
3697;BME280;60662;48.810;8.872;2024-03-25T09:31:22;95756.13;;;10.62;53.23
3697;BME280;60662;48.810;8.872;2024-03-25T09:32:23;95745.06;;;10.73;51.27
3697;BME280;60662;48.810;8.872;2024-03-25T09:33:26;95748.91;;;10.37;52.40
3697;BME280;60662;48.810;8.872;2024-03-25T09:34:26;95743.16;;;11.06;53.10
3697;BME280;60662;48.810;8.872;2024-03-25T09:35:27;95737.59;;;11.39;51.65
3697;BME280;60662;48.810;8.872;2024-03-25T09:36:27;95747.47;;;11.63;51.31
3697;BME280;60662;48.810;8.872;2024-03-25T09:37:28;95740.78;;;9.49;54.19
3697;BME280;60662;48.810;8.872;2024-03-25T09:38:29;95740.84;;;8.82;55.21
3697;BME280;60662;48.810;8.872;2024-03-25T09:39:30;95747.97;;;8.78;55.88
3697;BME280;60662;48.810;8.872;2024-03-25T09:40:30;95754.81;;;8.63;56.04
3697;BME280;60662;48.810;8.872;2024-03-25T09:41:32;95734.53;;;8.86;55.34
3697;BME280;60662;48.810;8.872;2024-03-25T09:42:47;95749.09;;;9.40;56.19
3697;BME280;60662;48.810;8.872;2024-03-25T09:43:48;95739.31;;;9.91;54.36
3697;BME280;60662;48.810;8.872;2024-03-25T09:44:55;95743.31;;;10.13;54.45
3697;BME280;60662;48.810;8.872;2024-03-25T09:45:56;95743.03;;;10.34;53.00
3697;BME280;60662;48.810;8.872;2024-03-25T09:47:00;95731.00;;;10.31;52.43
3697;BME280;60662;48.810;8.872;2024-03-25T09:48:03;95730.56;;;9.92;53.58
3697;BME280;60662;48.810;8.872;2024-03-25T09:49:04;95729.25;;;10.16;53.92
3697;BME280;60662;48.810;8.872;2024-03-25T09:50:06;95742.97;;;9.73;55.10
3697;BME280;60662;48.810;8.872;2024-03-25T09:51:11;95726.47;;;10.19;55.61
3697;BME280;60662;48.810;8.872;2024-03-25T09:52:12;95738.53;;;10.66;54.93
3697;BME280;60662;48.810;8.872;2024-03-25T09:53:12;95738.41;;;10.39;53.80
3697;BME280;60662;48.810;8.872;2024-03-25T09:54:13;95730.56;;;10.23;55.71
3697;BME280;60662;48.810;8.872;2024-03-25T09:55:14;95735.81;;;9.60;56.49
3697;BME280;60662;48.810;8.872;2024-03-25T09:56:14;95727.66;;;10.13;54.90
3697;BME280;60662;48.810;8.872;2024-03-25T09:57:16;95727.31;;;10.50;55.13
3697;BME280;60662;48.810;8.872;2024-03-25T09:58:17;95725.13;;;11.01;52.64
3697;BME280;60662;48.810;8.872;2024-03-25T09:59:20;95717.00;;;11.20;50.94
3697;BME280;60662;48.810;8.872;2024-03-25T10:00:20;95720.34;;;11.79;51.49
3697;BME280;60662;48.810;8.872;2024-03-25T10:01:21;95721.31;;;11.63;49.54
3697;BME280;60662;48.810;8.872;2024-03-25T10:02:21;95714.47;;;10.61;51.03
3697;BME280;60662;48.810;8.872;2024-03-25T10:03:26;95714.97;;;12.35;52.21
3697;BME280;60662;48.810;8.872;2024-03-25T10:04:28;95709.66;;;11.82;49.40
3697;BME280;60662;48.810;8.872;2024-03-25T10:05:29;95693.41;;;10.78;51.90
3697;BME280;60662;48.810;8.872;2024-03-25T10:06:29;95701.81;;;11.96;51.12
3697;BME280;60662;48.810;8.872;2024-03-25T10:07:30;95702.56;;;11.84;50.36
3697;BME280;60662;48.810;8.872;2024-03-25T10:08:30;95700.69;;;12.13;50.85
3697;BME280;60662;48.810;8.872;2024-03-25T10:09:31;95695.31;;;12.42;49.14
3697;BME280;60662;48.810;8.872;2024-03-25T10:10:34;95698.13;;;11.30;51.34
3697;BME280;60662;48.810;8.872;2024-03-25T10:11:34;95700.09;;;10.39;52.56
3697;BME280;60662;48.810;8.872;2024-03-25T10:12:36;95709.56;;;8.99;52.87
3697;BME280;60662;48.810;8.872;2024-03-25T10:13:36;95704.88;;;8.73;54.93
3697;BME280;60662;48.810;8.872;2024-03-25T10:14:39;95711.19;;;8.33;56.96
3697;BME280;60662;48.810;8.872;2024-03-25T10:15:40;95712.06;;;8.16;55.70
3697;BME280;60662;48.810;8.872;2024-03-25T10:16:41;95695.56;;;8.69;55.50
3697;BME280;60662;48.810;8.872;2024-03-25T10:17:42;95698.72;;;8.91;55.17
3697;BME280;60662;48.810;8.872;2024-03-25T10:18:42;95699.31;;;9.12;54.44
3697;BME280;60662;48.810;8.872;2024-03-25T10:19:43;95695.63;;;9.01;55.06
3697;BME280;60662;48.810;8.872;2024-03-25T10:20:50;95698.63;;;9.09;55.44
3697;BME280;60662;48.810;8.872;2024-03-25T10:22:01;95690.44;;;9.48;54.60
3697;BME280;60662;48.810;8.872;2024-03-25T10:23:01;95696.41;;;9.35;54.34
3697;BME280;60662;48.810;8.872;2024-03-25T10:24:05;95697.22;;;9.03;53.54
3697;BME280;60662;48.810;8.872;2024-03-25T10:25:06;95685.94;;;9.03;54.51
3697;BME280;60662;48.810;8.872;2024-03-25T10:26:08;95690.50;;;9.47;55.39
3697;BME280;60662;48.810;8.872;2024-03-25T10:27:19;95676.91;;;10.64;51.00
3697;BME280;60662;48.810;8.872;2024-03-25T10:28:22;95678.59;;;10.34;49.30
3697;BME280;60662;48.810;8.872;2024-03-25T10:29:24;95674.50;;;11.86;48.49
3697;BME280;60662;48.810;8.872;2024-03-25T10:30:28;95670.75;;;12.17;46.75
3697;BME280;60662;48.810;8.872;2024-03-25T10:31:29;95678.69;;;11.48;47.42
3697;BME280;60662;48.810;8.872;2024-03-25T10:32:30;95679.72;;;11.31;49.48
3697;BME280;60662;48.810;8.872;2024-03-25T10:33:30;95665.44;;;11.37;50.67
3697;BME280;60662;48.810;8.872;2024-03-25T10:34:31;95670.84;;;11.48;50.12
3697;BME280;60662;48.810;8.872;2024-03-25T10:35:36;95669.50;;;11.55;49.72
3697;BME280;60662;48.810;8.872;2024-03-25T10:36:37;95661.25;;;11.89;49.86
3697;BME280;60662;48.810;8.872;2024-03-25T10:37:39;95666.72;;;11.71;48.82
3697;BME280;60662;48.810;8.872;2024-03-25T10:38:40;95674.06;;;11.79;48.55
3697;BME280;60662;48.810;8.872;2024-03-25T10:39:48;95670.22;;;11.72;47.92
3697;BME280;60662;48.810;8.872;2024-03-25T10:40:51;95669.84;;;12.70;47.30
3697;BME280;60662;48.810;8.872;2024-03-25T10:41:58;95675.09;;;12.57;46.57
3697;BME280;60662;48.810;8.872;2024-03-25T10:43:09;95666.91;;;11.55;47.52
3697;BME280;60662;48.810;8.872;2024-03-25T10:44:14;95665.56;;;11.35;48.13
3697;BME280;60662;48.810;8.872;2024-03-25T10:45:15;95668.44;;;11.31;49.05
3697;BME280;60662;48.810;8.872;2024-03-25T10:46:20;95665.84;;;12.25;49.15
3697;BME280;60662;48.810;8.872;2024-03-25T10:47:28;95658.53;;;12.31;48.04
3697;BME280;60662;48.810;8.872;2024-03-25T10:48:31;95655.91;;;10.94;48.75
3697;BME280;60662;48.810;8.872;2024-03-25T10:49:48;95659.25;;;9.77;51.87
3697;BME280;60662;48.810;8.872;2024-03-25T10:50:50;95663.75;;;9.59;51.92
3697;BME280;60662;48.810;8.872;2024-03-25T10:51:52;95658.00;;;9.85;52.71
3697;BME280;60662;48.810;8.872;2024-03-25T10:52:54;95656.28;;;10.14;52.99
3697;BME280;60662;48.810;8.872;2024-03-25T10:53:57;95649.84;;;9.75;52.60
3697;BME280;60662;48.810;8.872;2024-03-25T10:54:59;95661.38;;;9.24;54.64
3697;BME280;60662;48.810;8.872;2024-03-25T10:56:00;95650.09;;;9.40;54.32
3697;BME280;60662;48.810;8.872;2024-03-25T10:57:03;95653.19;;;9.46;54.22
3697;BME280;60662;48.810;8.872;2024-03-25T10:58:04;95646.38;;;9.44;54.43
3697;BME280;60662;48.810;8.872;2024-03-25T10:59:07;95647.72;;;9.19;53.92
3697;BME280;60662;48.810;8.872;2024-03-25T11:00:09;95656.22;;;9.23;54.19
3697;BME280;60662;48.810;8.872;2024-03-25T11:01:18;95650.50;;;8.84;55.49
3697;BME280;60662;48.810;8.872;2024-03-25T11:02:19;95641.44;;;8.91;55.57
3697;BME280;60662;48.810;8.872;2024-03-25T11:03:21;95631.66;;;9.59;52.79
3697;BME280;60662;48.810;8.872;2024-03-25T11:04:24;95643.00;;;9.88;53.23
3697;BME280;60662;48.810;8.872;2024-03-25T11:05:25;95639.88;;;10.42;52.60
3697;BME280;60662;48.810;8.872;2024-03-25T11:06:26;95631.03;;;10.59;50.67
3697;BME280;60662;48.810;8.872;2024-03-25T11:07:31;95643.34;;;9.36;51.75
3697;BME280;60662;48.810;8.872;2024-03-25T11:08:32;95641.63;;;9.97;53.15
3697;BME280;60662;48.810;8.872;2024-03-25T11:09:32;95633.03;;;9.80;51.95
3697;BME280;60662;48.810;8.872;2024-03-25T11:10:33;95631.22;;;9.51;51.43
3697;BME280;60662;48.810;8.872;2024-03-25T11:11:33;95624.91;;;9.55;52.46
3697;BME280;60662;48.810;8.872;2024-03-25T11:12:36;95627.22;;;9.45;53.48
3697;BME280;60662;48.810;8.872;2024-03-25T11:13:37;95617.63;;;10.06;53.95
3697;BME280;60662;48.810;8.872;2024-03-25T11:14:39;95616.13;;;10.61;52.81
3697;BME280;60662;48.810;8.872;2024-03-25T11:15:44;95614.97;;;10.94;52.98
3697;BME280;60662;48.810;8.872;2024-03-25T11:16:52;95609.34;;;11.01;52.75
3697;BME280;60662;48.810;8.872;2024-03-25T11:17:52;95611.59;;;10.92;53.14
3697;BME280;60662;48.810;8.872;2024-03-25T11:18:53;95581.72;;;10.97;53.73
3697;BME280;60662;48.810;8.872;2024-03-25T11:19:53;95608.91;;;11.49;53.73
3697;BME280;60662;48.810;8.872;2024-03-25T11:21:04;95608.19;;;11.47;52.82
3697;BME280;60662;48.810;8.872;2024-03-25T11:22:10;95607.38;;;11.59;52.95
3697;BME280;60662;48.810;8.872;2024-03-25T11:23:12;95601.78;;;13.07;51.23
3697;BME280;60662;48.810;8.872;2024-03-25T11:24:13;95601.75;;;12.70;51.21
3697;BME280;60662;48.810;8.872;2024-03-25T11:25:13;95596.28;;;12.73;50.90
3697;BME280;60662;48.810;8.872;2024-03-25T11:26:22;95594.69;;;12.83;50.23
3697;BME280;60662;48.810;8.872;2024-03-25T11:27:26;95582.47;;;13.45;49.10
3697;BME280;60662;48.810;8.872;2024-03-25T11:28:27;95588.19;;;13.26;49.39
3697;BME280;60662;48.810;8.872;2024-03-25T11:29:28;95594.38;;;12.88;49.08
3697;BME280;60662;48.810;8.872;2024-03-25T11:30:30;95577.78;;;12.37;50.38
3697;BME280;60662;48.810;8.872;2024-03-25T11:31:33;95586.91;;;12.57;50.95
3697;BME280;60662;48.810;8.872;2024-03-25T11:32:51;95582.81;;;12.66;50.15
3697;BME280;60662;48.810;8.872;2024-03-25T11:33:55;95585.31;;;13.05;50.63
3697;BME280;60662;48.810;8.872;2024-03-25T11:34:57;95576.69;;;14.81;47.86
3697;BME280;60662;48.810;8.872;2024-03-25T11:35:57;95573.63;;;15.63;46.28
3697;BME280;60662;48.810;8.872;2024-03-25T11:36:58;95570.81;;;16.09;44.84
3697;BME280;60662;48.810;8.872;2024-03-25T11:37:58;95575.56;;;16.67;43.46
3697;BME280;60662;48.810;8.872;2024-03-25T11:39:00;95571.16;;;14.16;45.10
3697;BME280;60662;48.810;8.872;2024-03-25T11:40:03;55703.94;;;-145.49;100.00
3697;BME280;60662;48.810;8.872;2024-03-25T11:41:04;55703.94;;;-145.49;100.00
3697;BME280;60662;48.810;8.872;2024-03-25T11:42:07;95559.81;;;17.86;43.90
3697;BME280;60662;48.810;8.872;2024-03-25T11:43:08;95547.56;;;18.24;42.79
3697;BME280;60662;48.810;8.872;2024-03-25T11:44:09;95557.94;;;18.83;42.55
3697;BME280;60662;48.810;8.872;2024-03-25T11:45:15;95555.00;;;18.96;41.44
3697;BME280;60662;48.810;8.872;2024-03-25T11:46:19;95553.97;;;18.69;40.43
3697;BME280;60662;48.810;8.872;2024-03-25T11:47:19;95561.63;;;18.63;40.57
3697;BME280;60662;48.810;8.872;2024-03-25T11:48:20;95555.34;;;19.29;40.20
3697;BME280;60662;48.810;8.872;2024-03-25T11:49:21;95551.69;;;19.12;39.47
3697;BME280;60662;48.810;8.872;2024-03-25T11:50:21;95560.56;;;18.55;40.21
3697;BME280;60662;48.810;8.872;2024-03-25T11:51:22;95554.13;;;17.91;40.76
3697;BME280;60662;48.810;8.872;2024-03-25T11:52:22;95566.31;;;16.52;42.58
3697;BME280;60662;48.810;8.872;2024-03-25T11:53:23;95558.53;;;16.19;43.67
3697;BME280;60662;48.810;8.872;2024-03-25T11:54:23;95558.47;;;15.88;43.90
3697;BME280;60662;48.810;8.872;2024-03-25T11:55:24;95561.34;;;15.52;43.95
3697;BME280;60662;48.810;8.872;2024-03-25T11:56:25;55703.94;;;-145.49;100.00
3697;BME280;60662;48.810;8.872;2024-03-25T11:57:28;55703.94;;;-145.49;100.00
3697;BME280;60662;48.810;8.872;2024-03-25T11:58:28;95553.34;;;14.31;46.50
3697;BME280;60662;48.810;8.872;2024-03-25T11:59:29;95552.66;;;14.40;45.67
3697;BME280;60662;48.810;8.872;2024-03-25T12:00:29;95549.16;;;15.19;43.96
3697;BME280;60662;48.810;8.872;2024-03-25T12:01:30;95542.78;;;15.33;44.52
3697;BME280;60662;48.810;8.872;2024-03-25T12:02:31;95543.28;;;15.15;44.17
3697;BME280;60662;48.810;8.872;2024-03-25T12:03:36;95543.19;;;15.06;44.78
3697;BME280;60662;48.810;8.872;2024-03-25T12:04:36;95535.28;;;13.92;45.59
3697;BME280;60662;48.810;8.872;2024-03-25T12:05:36;95538.56;;;14.30;45.56
3697;BME280;60662;48.810;8.872;2024-03-25T12:06:37;95538.09;;;14.25;45.71
3697;BME280;60662;48.810;8.872;2024-03-25T12:07:38;95531.88;;;14.03;46.60
3697;BME280;60662;48.810;8.872;2024-03-25T12:08:38;95528.84;;;15.42;45.61
3697;BME280;60662;48.810;8.872;2024-03-25T12:09:59;95529.53;;;15.77;44.90
3697;BME280;60662;48.810;8.872;2024-03-25T12:11:18;95516.72;;;14.75;45.53
3697;BME280;60662;48.810;8.872;2024-03-25T12:12:18;95524.84;;;15.27;46.41
3697;BME280;60662;48.810;8.872;2024-03-25T12:13:19;95525.56;;;14.85;46.40
3697;BME280;60662;48.810;8.872;2024-03-25T12:14:20;95527.56;;;12.69;47.02
3697;BME280;60662;48.810;8.872;2024-03-25T12:15:21;95526.94;;;12.16;49.75
3697;BME280;60662;48.810;8.872;2024-03-25T12:16:23;95520.94;;;11.35;51.20